Time;durP1;ratioP1;P1;durP2;ratioP2;P2;SDS_P1;SDS_P2;PMS_P1;PMS_P2;Temp;Humidity;BMP_temperature;BMP_pressure;BME280_temperature;BME280_humidity;BME280_pressure;Samples;Min_cycle;Max_cycle;Signal;HPM_P1;HPM_P2
2023/12/26 00:00:23;;;;;;;24.17;12.33;;;;;5.20;96547.00;;;;5084380;28;20215;-65
2023/12/26 00:03:12;;;;;;;15.00;10.57;;;;;6.00;96556.00;;;;5097009;28;20203;-65
2023/12/26 00:06:02;;;;;;;25.80;13.33;;;;;6.20;96548.00;;;;5092063;28;20195;-65
2023/12/26 00:08:51;;;;;;;14.90;11.13;;;;;6.10;96545.00;;;;5089464;28;20207;-65
2023/12/26 00:11:44;;;;;;;9.97;7.83;;;;;6.00;96537.00;;;;5081780;28;20203;-65
2023/12/26 00:14:34;;;;;;;14.20;10.23;;;;;5.80;96545.00;;;;5088094;28;20250;-64
2023/12/26 00:17:24;;;;;;;24.63;13.43;;;;;5.60;96538.00;;;;5089227;28;20191;-64
2023/12/26 00:20:14;;;;;;;14.30;11.20;;;;;6.10;96534.00;;;;5086641;28;20879;-64
2023/12/26 00:23:03;;;;;;;26.77;14.47;;;;;6.30;96540.00;;;;5086431;28;20711;-64
2023/12/26 00:25:52;;;;;;;11.40;9.80;;;;;6.00;96538.00;;;;5102721;28;20202;-65
2023/12/26 00:28:42;;;;;;;14.60;10.00;;;;;6.10;96530.00;;;;5099121;28;20198;-65
2023/12/26 00:31:32;;;;;;;13.70;11.47;;;;;6.00;96529.00;;;;5090821;28;20207;-64
2023/12/26 00:34:21;;;;;;;15.00;11.23;;;;;5.80;96524.00;;;;5094040;28;20748;-64
2023/12/26 00:37:11;;;;;;;26.20;13.93;;;;;5.50;96526.00;;;;5098512;28;20203;-65
2023/12/26 00:40:00;;;;;;;26.30;14.30;;;;;5.70;96534.00;;;;5098317;28;20215;-65
2023/12/26 00:42:50;;;;;;;13.90;11.47;;;;;5.80;96528.00;;;;5105359;28;20195;-65
2023/12/26 00:45:40;;;;;;;14.93;13.33;;;;;5.90;96532.00;;;;5091378;28;20216;-65
2023/12/26 00:48:30;;;;;;;12.77;9.90;;;;;5.80;96534.00;;;;5087541;28;20195;-64
2023/12/26 00:51:20;;;;;;;17.07;10.50;;;;;5.70;96522.00;;;;5098193;28;20195;-64
2023/12/26 00:54:09;;;;;;;20.67;11.27;;;;;5.80;96528.00;;;;5089852;28;20318;-65
2023/12/26 00:56:58;;;;;;;24.40;14.17;;;;;5.70;96529.00;;;;5095304;28;20203;-65
2023/12/26 00:59:47;;;;;;;15.07;13.27;;;;;5.70;96524.00;;;;5094861;28;20207;-64
2023/12/26 01:02:36;;;;;;;13.03;7.70;;;;;5.60;96529.00;;;;5097171;28;20210;-65
2023/12/26 01:05:27;;;;;;;12.30;7.83;;;;;5.40;96524.00;;;;5093720;28;20219;-64
2023/12/26 01:08:16;;;;;;;10.77;4.93;;;;;5.50;96512.00;;;;5089663;28;20206;-64
2023/12/26 01:11:06;;;;;;;23.20;9.87;;;;;5.40;96518.00;;;;5093085;28;20699;-65
2023/12/26 01:13:55;;;;;;;14.00;7.73;;;;;5.20;96530.00;;;;5085592;28;20212;-65
2023/12/26 01:16:45;;;;;;;14.17;8.93;;;;;5.00;96522.00;;;;5089546;28;20606;-65
2023/12/26 01:19:34;;;;;;;12.23;7.23;;;;;5.00;96514.00;;;;5085824;28;20203;-65
2023/12/26 01:22:25;;;;;;;16.93;10.23;;;;;4.60;96515.00;;;;5082251;28;20272;-64
2023/12/26 01:25:14;;;;;;;16.30;13.43;;;;;4.70;96510.00;;;;5094766;28;20241;-64
2023/12/26 01:28:03;;;;;;;24.37;14.50;;;;;4.90;96513.00;;;;5098694;28;20194;-65
2023/12/26 01:30:53;;;;;;;13.47;10.20;;;;;5.10;96517.00;;;;5100691;28;20571;-64
2023/12/26 01:33:42;;;;;;;12.13;9.00;;;;;4.70;96512.00;;;;5095733;28;20223;-65
2023/12/26 01:36:32;;;;;;;14.47;10.53;;;;;4.80;96521.00;;;;5098410;28;20295;-64
2023/12/26 01:39:25;;;;;;;12.57;10.83;;;;;4.90;96513.00;;;;5093448;28;20302;-64
2023/12/26 01:42:14;;;;;;;24.90;13.50;;;;;5.00;96507.00;;;;5097927;28;20803;-64
2023/12/26 01:45:04;;;;;;;18.63;11.87;;;;;5.00;96510.00;;;;5097766;28;20215;-64
2023/12/26 01:47:55;;;;;;;11.50;10.20;;;;;4.80;96503.00;;;;5099713;28;20580;-64
2023/12/26 01:50:44;;;;;;;19.63;14.50;;;;;4.60;96496.00;;;;5090818;28;20586;-64
2023/12/26 01:53:34;;;;;;;22.07;17.03;;;;;4.70;96490.00;;;;5083767;28;20195;-64
2023/12/26 01:56:26;;;;;;;15.17;13.83;;;;;4.70;96486.00;;;;5088346;28;20763;-65
2023/12/26 01:59:15;;;;;;;15.60;13.50;;;;;5.00;96478.00;;;;5098007;28;20255;-64
2023/12/26 02:02:05;;;;;;;31.90;16.23;;;;;4.80;96487.00;;;;5093720;28;20809;-64
2023/12/26 02:04:55;;;;;;;22.27;14.87;;;;;4.50;96470.00;;;;5102079;28;20221;-64
2023/12/26 02:07:44;;;;;;;11.07;9.70;;;;;4.70;96487.00;;;;5082579;28;20229;-65
2023/12/26 02:10:33;;;;;;;22.70;9.63;;;;;4.60;96472.00;;;;5095378;28;20203;-65
2023/12/26 02:13:24;;;;;;;23.53;9.33;;;;;3.90;96467.00;;;;5084378;28;20202;-65
2023/12/26 02:16:16;;;;;;;12.47;6.03;;;;;4.00;96470.00;;;;5095325;28;20227;-64
2023/12/26 02:19:06;;;;;;;27.90;10.40;;;;;4.00;96470.00;;;;5083787;28;20208;-64
2023/12/26 02:21:55;;;;;;;12.30;5.67;;;;;4.20;96466.00;;;;5091307;28;20203;-63
2023/12/26 02:24:47;;;;;;;15.17;6.67;;;;;4.30;96466.00;;;;5086247;28;20227;-64
2023/12/26 02:27:37;;;;;;;17.87;6.83;;;;;4.50;96464.00;;;;5083481;28;20200;-64
2023/12/26 02:30:27;;;;;;;25.77;9.17;;;;;3.80;96458.00;;;;5083587;28;20279;-63
2023/12/26 02:33:16;;;;;;;20.17;6.93;;;;;3.80;96451.00;;;;5096878;28;20217;-63
2023/12/26 02:36:06;;;;;;;21.90;7.07;;;;;3.90;96457.00;;;;5100895;28;20468;-64
2023/12/26 02:38:55;;;;;;;11.10;4.27;;;;;3.50;96450.00;;;;5092528;28;20430;-63
2023/12/26 02:41:46;;;;;;;10.80;3.97;;;;;3.60;96445.00;;;;5093516;28;20462;-66
2023/12/26 02:44:35;;;;;;;11.07;3.97;;;;;3.70;96442.00;;;;5086136;28;20510;-64
2023/12/26 02:47:25;;;;;;;15.50;5.33;;;;;4.40;96459.00;;;;5093714;28;20936;-64
2023/12/26 02:50:14;;;;;;;17.00;5.93;;;;;3.70;96426.00;;;;5097007;28;20430;-64
2023/12/26 02:53:03;;;;;;;19.20;6.43;;;;;4.00;96424.00;;;;5088013;28;20850;-64
2023/12/26 02:55:53;;;;;;;13.27;4.67;;;;;4.00;96431.00;;;;5087592;28;20462;-65
2023/12/26 02:58:43;;;;;;;12.33;4.27;;;;;3.60;96415.00;;;;5088664;28;20809;-66
2023/12/26 03:01:32;;;;;;;13.60;4.83;;;;;3.80;96420.00;;;;5086868;28;20420;-64
2023/12/26 03:04:22;;;;;;;13.40;4.70;;;;;2.90;96419.00;;;;5103311;28;20810;-66
2023/12/26 03:07:11;;;;;;;24.03;7.53;;;;;2.80;96417.00;;;;5087309;28;20442;-63
2023/12/26 03:10:04;;;;;;;18.30;5.60;;;;;2.70;96408.00;;;;5099066;28;20956;-67
2023/12/26 03:12:54;;;;;;;5.20;1.90;;;;;3.00;96401.00;;;;5093551;28;20422;-67
2023/12/26 03:15:44;;;;;;;12.33;3.93;;;;;3.40;96408.00;;;;5088625;28;20455;-64
2023/12/26 03:18:34;;;;;;;9.00;2.97;;;;;3.30;96399.00;;;;5085631;28;20421;-65
2023/12/26 03:21:23;;;;;;;10.43;3.37;;;;;2.90;96406.00;;;;5085536;28;20433;-64
2023/12/26 03:24:12;;;;;;;17.70;5.60;;;;;3.00;96407.00;;;;5088214;28;20455;-66
2023/12/26 03:27:02;;;;;;;16.00;4.93;;;;;3.40;96407.00;;;;5094503;28;20446;-63
2023/12/26 03:29:51;;;;;;;8.57;2.93;;;;;2.70;96397.00;;;;5089475;28;21127;-64
2023/12/26 03:32:44;;;;;;;7.37;2.47;;;;;2.70;96401.00;;;;5088664;28;20428;-64
2023/12/26 03:35:33;;;;;;;7.37;2.50;;;;;3.50;96408.00;;;;5096443;28;20542;-64
2023/12/26 03:38:22;;;;;;;9.07;2.93;;;;;3.70;96400.00;;;;5080072;28;20429;-64
2023/12/26 03:41:12;;;;;;;13.90;4.40;;;;;3.30;96394.00;;;;5094189;28;21020;-63
2023/12/26 03:44:01;;;;;;;18.87;5.77;;;;;2.10;96391.00;;;;5088481;28;20469;-68
2023/12/26 03:46:51;;;;;;;8.10;2.77;;;;;2.20;96389.00;;;;5083452;28;20421;-64
2023/12/26 03:49:41;;;;;;;11.93;3.83;;;;;3.10;96383.00;;;;5101271;28;21002;-64
2023/12/26 03:52:31;;;;;;;10.20;3.33;;;;;3.40;96389.00;;;;5088514;28;20428;-64
2023/12/26 03:55:20;;;;;;;9.20;3.00;;;;;3.80;96389.00;;;;5088220;28;20449;-64
2023/12/26 03:58:09;;;;;;;15.13;4.87;;;;;3.60;96384.00;;;;5097787;28;20472;-64
2023/12/26 04:00:58;;;;;;;16.77;5.03;;;;;3.00;96389.00;;;;5093207;28;20437;-67
2023/12/26 04:03:47;;;;;;;8.57;2.90;;;;;3.20;96375.00;;;;5103409;28;20843;-65
2023/12/26 04:06:38;;;;;;;4.67;1.67;;;;;3.60;96377.00;;;;5085514;28;20840;-62
2023/12/26 04:09:27;;;;;;;7.97;2.73;;;;;3.50;96392.00;;;;5099279;28;20431;-66
2023/12/26 04:12:16;;;;;;;9.80;3.13;;;;;4.30;96402.00;;;;5097942;28;20433;-65
2023/12/26 04:15:06;;;;;;;19.67;6.00;;;;;4.20;96384.00;;;;5100140;28;20509;-64
2023/12/26 04:17:56;;;;;;;6.37;2.20;;;;;4.00;96389.00;;;;5089503;28;20226;-64
2023/12/26 04:20:45;;;;;;;9.13;3.13;;;;;3.10;96378.00;;;;5083380;28;20444;-63
2023/12/26 04:23:36;;;;;;;17.57;5.33;;;;;3.60;96376.00;;;;5087685;28;20430;-64
2023/12/26 04:26:26;;;;;;;9.53;3.03;;;;;3.20;96369.00;;;;5090377;28;20422;-64
2023/12/26 04:29:15;;;;;;;8.63;2.87;;;;;2.70;96372.00;;;;5089230;28;20468;-66
2023/12/26 04:32:06;;;;;;;17.73;5.50;;;;;3.20;96375.00;;;;5076725;28;20796;-64
2023/12/26 04:34:55;;;;;;;7.07;2.37;;;;;3.80;96386.00;;;;5079671;28;20449;-64
2023/12/26 04:37:44;;;;;;;8.13;2.77;;;;;4.00;96385.00;;;;5084518;28;20461;-64
2023/12/26 04:40:35;;;;;;;18.37;5.50;;;;;4.30;96385.00;;;;5087167;28;20428;-65
2023/12/26 04:43:24;;;;;;;16.93;5.10;;;;;4.00;96379.00;;;;5088968;28;21056;-64
2023/12/26 04:46:19;;;;;;;14.20;4.50;;;;;4.60;96387.00;;;;5081994;28;20429;-65
2023/12/26 04:49:08;;;;;;;13.67;4.40;;;;;4.30;96377.00;;;;5075452;28;20207;-65
2023/12/26 04:51:57;;;;;;;14.33;4.47;;;;;3.60;96363.00;;;;5086725;28;20425;-65
2023/12/26 04:54:47;;;;;;;11.13;3.63;;;;;3.60;96378.00;;;;5071513;28;20221;-66
2023/12/26 04:57:38;;;;;;;14.03;4.33;;;;;3.30;96377.00;;;;5078322;28;20989;-66
2023/12/26 05:00:27;;;;;;;17.00;5.17;;;;;3.60;96386.00;;;;5073796;28;20233;-64
2023/12/26 05:03:16;;;;;;;14.23;4.43;;;;;3.90;96381.00;;;;5087997;28;20437;-64
2023/12/26 05:06:06;;;;;;;17.97;5.50;;;;;4.20;96387.00;;;;5073719;28;20456;-64
2023/12/26 05:08:55;;;;;;;9.37;3.03;;;;;3.90;96387.00;;;;5078353;28;20930;-66
2023/12/26 05:11:44;;;;;;;10.03;3.27;;;;;4.20;96376.00;;;;5076894;28;20669;-65
2023/12/26 05:14:35;;;;;;;5.40;1.90;;;;;4.60;96383.00;;;;5081017;28;20712;-63
2023/12/26 05:17:24;;;;;;;13.67;4.17;;;;;4.60;96379.00;;;;5088584;28;20479;-64
2023/12/26 05:20:13;;;;;;;16.43;5.07;;;;;4.10;96378.00;;;;5081393;28;20203;-64
2023/12/26 05:23:03;;;;;;;15.63;4.77;;;;;3.50;96378.00;;;;5079032;28;20200;-66
2023/12/26 05:25:52;;;;;;;11.87;3.83;;;;;3.70;96375.00;;;;5075957;28;20204;-65
2023/12/26 05:28:44;;;;;;;10.43;3.37;;;;;3.80;96387.00;;;;5084484;28;20965;-64
2023/12/26 05:31:35;;;;;;;9.23;3.00;;;;;4.30;96400.00;;;;5085173;28;20429;-65
2023/12/26 05:34:25;;;;;;;8.73;2.87;;;;;4.50;96384.00;;;;5081944;28;20215;-65
2023/12/26 05:37:14;;;;;;;20.43;6.30;;;;;4.80;96395.00;;;;5078399;28;20837;-64
2023/12/26 05:40:04;;;;;;;17.43;5.20;;;;;4.10;96378.00;;;;5077522;28;20195;-66
2023/12/26 05:42:53;;;;;;;9.90;3.17;;;;;4.40;96380.00;;;;5083762;28;20200;-64
2023/12/26 05:45:43;;;;;;;11.57;3.73;;;;;4.30;96369.00;;;;5082027;28;20714;-65
2023/12/26 05:48:34;;;;;;;8.83;2.97;;;;;5.00;96395.00;;;;5074080;28;20222;-64
2023/12/26 05:51:23;;;;;;;7.23;2.43;;;;;4.90;96394.00;;;;5080584;28;20200;-65
2023/12/26 05:54:13;;;;;;;17.33;5.30;;;;;4.50;96388.00;;;;5085039;28;20238;-64
2023/12/26 05:57:02;;;;;;;17.03;5.23;;;;;4.50;96395.00;;;;5079629;28;20214;-64
2023/12/26 05:59:53;;;;;;;8.03;2.63;;;;;4.80;96415.00;;;;5086175;28;20227;-64
2023/12/26 06:02:42;;;;;;;8.53;2.77;;;;;4.90;96404.00;;;;5076927;28;20229;-64
2023/12/26 06:05:32;;;;;;;9.30;3.03;;;;;4.50;96388.00;;;;5076168;28;20231;-66
2023/12/26 06:08:22;;;;;;;6.13;2.13;;;;;4.90;96409.00;;;;5077540;28;20203;-65
2023/12/26 06:11:11;;;;;;;16.70;5.27;;;;;4.90;96405.00;;;;5080695;28;20578;-65
2023/12/26 06:14:00;;;;;;;14.70;4.47;;;;;5.20;96404.00;;;;5082754;28;20219;-65
2023/12/26 06:16:49;;;;;;;6.80;2.30;;;;;5.60;96401.00;;;;5088009;28;20199;-65
2023/12/26 06:19:38;;;;;;;7.57;2.60;;;;;5.40;96406.00;;;;5085641;28;20199;-65
2023/12/26 06:22:29;;;;;;;9.53;3.07;;;;;5.00;96402.00;;;;5077302;28;20211;-65
2023/12/26 06:25:18;;;;;;;8.77;2.80;;;;;4.60;96418.00;;;;5079125;28;20222;-65
2023/12/26 06:28:08;;;;;;;16.77;5.13;;;;;5.00;96407.00;;;;5074604;28;20200;-64
2023/12/26 06:30:57;;;;;;;6.03;2.03;;;;;5.60;96422.00;;;;5083304;28;20207;-63
2023/12/26 06:33:46;;;;;;;10.20;3.27;;;;;5.40;96413.00;;;;5083024;28;20714;-65
2023/12/26 06:36:35;;;;;;;9.40;3.07;;;;;5.20;96415.00;;;;5085202;28;20196;-64
2023/12/26 06:39:26;;;;;;;8.40;2.73;;;;;4.60;96426.00;;;;5073470;28;20223;-66
2023/12/26 06:42:15;;;;;;;18.67;5.83;;;;;5.10;96421.00;;;;5079285;28;20234;-64
2023/12/26 06:45:05;;;;;;;17.67;5.37;;;;;5.40;96424.00;;;;5076242;28;20216;-64
2023/12/26 06:47:54;;;;;;;12.00;3.73;;;;;5.70;96440.00;;;;5077348;28;20733;-64
2023/12/26 06:50:43;;;;;;;6.50;2.17;;;;;4.90;96427.00;;;;5080265;28;20207;-64
2023/12/26 06:53:33;;;;;;;16.93;5.33;;;;;5.10;96428.00;;;;5084998;28;20203;-63
2023/12/26 06:56:24;;;;;;;9.63;3.07;;;;;5.80;96438.00;;;;5075931;28;20204;-64
2023/12/26 06:59:14;;;;;;;10.90;3.60;;;;;6.10;96443.00;;;;5079129;28;20746;-65
2023/12/26 07:02:03;;;;;;;16.30;5.07;;;;;6.00;96450.00;;;;5081860;28;20211;-64
2023/12/26 07:04:52;;;;;;;6.20;2.17;;;;;6.20;96447.00;;;;5073965;28;20810;-65
2023/12/26 07:07:42;;;;;;;10.97;3.50;;;;;5.50;96441.00;;;;5082462;28;20260;-64
2023/12/26 07:10:31;;;;;;;17.30;5.33;;;;;5.70;96449.00;;;;5086490;28;20206;-64
2023/12/26 07:13:21;;;;;;;17.73;5.37;;;;;5.00;96440.00;;;;5076262;28;20211;-64
2023/12/26 07:16:11;;;;;;;19.93;6.03;;;;;5.50;96451.00;;;;5082712;28;20195;-65
2023/12/26 07:19:00;;;;;;;14.57;4.43;;;;;5.50;96453.00;;;;5081978;28;20255;-64
2023/12/26 07:21:49;;;;;;;9.30;3.00;;;;;5.70;96465.00;;;;5080277;28;20206;-64
2023/12/26 07:24:38;;;;;;;23.80;7.23;;;;;5.70;96462.00;;;;5077048;28;20226;-64
2023/12/26 07:27:27;;;;;;;12.00;3.73;;;;;6.10;96470.00;;;;5079276;28;20203;-65
2023/12/26 07:30:18;;;;;;;20.00;6.20;;;;;6.10;96483.00;;;;5082812;28;20191;-64
2023/12/26 07:33:07;;;;;;;23.60;7.10;;;;;5.70;96470.00;;;;5076966;28;20290;-64
2023/12/26 07:35:57;;;;;;;8.03;2.70;;;;;5.90;96466.00;;;;5074051;28;20222;-65
2023/12/26 07:38:47;;;;;;;9.40;2.97;;;;;6.10;96483.00;;;;5076712;28;20215;-65
2023/12/26 07:41:36;;;;;;;11.07;3.50;;;;;6.40;96491.00;;;;5078669;28;20207;-65
2023/12/26 07:44:25;;;;;;;11.63;3.80;;;;;6.30;96502.00;;;;5077958;28;20224;-64
2023/12/26 07:47:16;;;;;;;20.37;6.23;;;;;6.30;96505.00;;;;5081866;28;20207;-65
2023/12/26 07:50:06;;;;;;;17.07;5.20;;;;;5.90;96494.00;;;;5078405;28;20688;-65
2023/12/26 07:52:56;;;;;;;7.77;2.57;;;;;6.10;96501.00;;;;5082158;28;20203;-64
2023/12/26 07:55:45;;;;;;;12.87;3.97;;;;;6.40;96500.00;;;;5084246;28;20813;-65
2023/12/26 07:58:35;;;;;;;10.93;3.50;;;;;7.00;96509.00;;;;5076023;28;20228;-64
2023/12/26 08:01:26;;;;;;;10.97;3.53;;;;;7.00;96508.00;;;;5082051;28;20978;-65
2023/12/26 08:04:17;;;;;;;18.17;5.63;;;;;6.50;96510.00;;;;5079639;28;20242;-64
2023/12/26 08:07:07;;;;;;;22.90;6.93;;;;;7.00;96525.00;;;;5081621;28;20348;-64
2023/12/26 08:09:57;;;;;;;8.40;2.67;;;;;7.30;96534.00;;;;5079264;28;20712;-64
2023/12/26 08:12:46;;;;;;;12.70;3.97;;;;;7.20;96534.00;;;;5079033;28;20309;-64
2023/12/26 08:15:35;;;;;;;9.80;3.17;;;;;7.20;96523.00;;;;5081170;28;20234;-64
2023/12/26 08:18:24;;;;;;;9.93;3.10;;;;;7.10;96528.00;;;;5080292;28;20295;-64
2023/12/26 08:21:15;;;;;;;15.83;4.83;;;;;7.00;96523.00;;;;5079315;28;20218;-64
2023/12/26 08:24:07;;;;;;;28.90;8.67;;;;;7.10;96523.00;;;;5072603;28;20250;-65
2023/12/26 08:26:57;;;;;;;8.63;2.77;;;;;7.40;96528.00;;;;5081061;28;20206;-64
2023/12/26 08:29:47;;;;;;;7.73;2.50;;;;;7.30;96530.00;;;;5078446;28;20195;-65
2023/12/26 08:32:36;;;;;;;12.20;3.83;;;;;7.60;96528.00;;;;5077825;28;20203;-65
2023/12/26 08:35:26;;;;;;;7.70;2.50;;;;;8.00;96542.00;;;;5075073;28;20211;-64
2023/12/26 08:38:17;;;;;;;17.80;5.57;;;;;8.20;96542.00;;;;5084258;28;20207;-63
2023/12/26 08:41:06;;;;;;;20.83;6.33;;;;;8.30;96536.00;;;;5077649;28;20604;-64
2023/12/26 08:43:56;;;;;;;11.87;3.67;;;;;8.50;96541.00;;;;5083651;28;20222;-64
2023/12/26 08:46:45;;;;;;;8.53;2.73;;;;;8.50;96533.00;;;;5082733;28;20204;-64
2023/12/26 08:49:34;;;;;;;9.57;2.97;;;;;8.70;96541.00;;;;5085221;28;20200;-64
2023/12/26 08:52:23;;;;;;;12.43;3.93;;;;;8.70;96546.00;;;;5083696;28;20203;-66
2023/12/26 08:55:15;;;;;;;19.70;6.03;;;;;8.80;96542.00;;;;5082069;28;20276;-65
2023/12/26 08:58:04;;;;;;;17.90;5.50;;;;;9.00;96544.00;;;;5085349;28;20207;-64
2023/12/26 09:00:54;;;;;;;8.07;2.63;;;;;9.40;96561.00;;;;5083613;28;20211;-64
2023/12/26 09:03:43;;;;;;;10.53;3.40;;;;;9.00;96555.00;;;;5078063;28;20256;-65
2023/12/26 09:06:32;;;;;;;8.63;2.83;;;;;9.10;96553.00;;;;5083017;28;20204;-65
2023/12/26 09:09:23;;;;;;;9.93;3.17;;;;;9.30;96568.00;;;;5086117;28;20196;-65
2023/12/26 09:12:13;;;;;;;27.00;8.23;;;;;9.00;96559.00;;;;5083826;28;20207;-64
2023/12/26 09:15:02;;;;;;;12.07;3.90;;;;;8.80;96558.00;;;;5080666;28;20219;-65
2023/12/26 09:17:52;;;;;;;9.17;3.07;;;;;8.90;96557.00;;;;5088136;28;20206;-66
2023/12/26 09:20:41;;;;;;;9.03;2.90;;;;;8.90;96563.00;;;;5084969;28;20231;-65
2023/12/26 09:23:30;;;;;;;26.03;7.87;;;;;8.90;96557.00;;;;5083683;28;20199;-65
2023/12/26 09:26:21;;;;;;;8.67;2.97;;;;;9.50;96572.00;;;;5080983;28;20205;-64
2023/12/26 09:29:12;;;;;;;21.60;6.60;;;;;10.20;96578.00;;;;5082701;28;20203;-64
2023/12/26 09:32:01;;;;;;;20.93;6.33;;;;;10.30;96577.00;;;;5076799;28;20699;-66
2023/12/26 09:34:50;;;;;;;8.00;2.80;;;;;10.80;96582.00;;;;5083263;28;20887;-65
2023/12/26 09:37:39;;;;;;;9.17;3.03;;;;;11.10;96572.00;;;;5082471;28;20668;-65
2023/12/26 09:40:28;;;;;;;19.53;6.17;;;;;11.30;96580.00;;;;5083529;28;20227;-64
2023/12/26 09:43:18;;;;;;;24.07;7.47;;;;;11.50;96584.00;;;;5082936;28;20235;-65
2023/12/26 09:46:11;;;;;;;22.00;6.80;;;;;11.50;96575.00;;;;5082280;28;20282;-65
2023/12/26 09:49:00;;;;;;;12.60;4.13;;;;;11.40;96567.00;;;;5081477;28;20222;-64
2023/12/26 09:51:50;;;;;;;8.37;3.00;;;;;11.80;96576.00;;;;5086632;28;20207;-66
2023/12/26 09:54:40;;;;;;;7.60;2.73;;;;;12.10;96579.00;;;;5082138;28;20222;-67
2023/12/26 09:57:30;;;;;;;13.17;4.20;;;;;12.20;96576.00;;;;5079836;28;20207;-67
2023/12/26 10:00:19;;;;;;;18.60;5.90;;;;;12.10;96578.00;;;;5082499;28;20226;-68
2023/12/26 10:03:10;;;;;;;18.00;5.67;;;;;12.20;96576.00;;;;5087372;28;20718;-70
2023/12/26 10:06:00;;;;;;;9.87;3.37;;;;;12.30;96580.00;;;;5082551;28;20257;-69
2023/12/26 10:08:50;;;;;;;7.97;2.80;;;;;12.30;96570.00;;;;5086429;28;21435;-67
2023/12/26 10:11:44;;;;;;;10.87;3.57;;;;;12.30;96571.00;;;;5077381;28;20204;-69
2023/12/26 10:14:33;;;;;;;9.17;3.33;;;;;12.40;96565.00;;;;5078885;28;20222;-69
2023/12/26 10:17:22;;;;;;;14.93;4.80;;;;;12.60;96567.00;;;;5083789;28;20200;-68
2023/12/26 10:20:17;;;;;;;16.70;5.43;;;;;12.60;96561.00;;;;5083231;28;20233;-68
2023/12/26 10:23:06;;;;;;;18.73;5.97;;;;;13.10;96564.00;;;;5078866;28;20261;-68
2023/12/26 10:25:56;;;;;;;11.77;4.10;;;;;13.90;96553.00;;;;5080902;28;20204;-68
2023/12/26 10:28:46;;;;;;;14.37;5.70;;;;;14.90;96554.00;;;;5082623;28;20191;-68
2023/12/26 10:31:35;;;;;;;12.93;8.73;;;;;14.90;96570.00;;;;5081736;28;20255;-68
2023/12/26 10:34:25;;;;;;;18.73;16.67;;;;;15.80;96559.00;;;;5083796;28;20296;-68
2023/12/26 10:37:15;;;;;;;32.23;18.00;;;;;14.40;96560.00;;;;5072200;28;20202;-69
2023/12/26 10:40:07;;;;;;;23.20;14.07;;;;;15.50;96558.00;;;;5082308;28;20345;-68
2023/12/26 10:42:58;;;;;;;19.37;17.63;;;;;16.70;96552.00;;;;5080250;28;20206;-71
2023/12/26 10:45:48;;;;;;;38.17;35.10;;;;;17.80;96540.00;;;;5077256;28;20210;-68
2023/12/26 10:48:38;;;;;;;58.47;55.20;;;;;18.50;96556.00;;;;5080657;28;20635;-69
2023/12/26 10:51:28;;;;;;;78.73;73.40;;;;;18.50;96551.00;;;;5082535;28;20800;-68
2023/12/26 10:54:21;;;;;;;85.40;80.17;;;;;19.20;96555.00;;;;5072313;28;20634;-70
2023/12/26 10:57:11;;;;;;;75.03;70.07;;;;;18.40;96564.00;;;;5073980;28;20208;-67
2023/12/26 13:51:51;;;;;;;31.83;10.63;;;;;15.70;96585.00;;;;5075988;28;20196;-70
2023/12/26 13:54:40;;;;;;;11.93;4.40;;;;;15.60;96588.00;;;;5076312;28;20283;-69
2023/12/26 13:57:29;;;;;;;12.63;4.40;;;;;15.20;96593.00;;;;5077514;28;20211;-67
2023/12/26 14:00:19;;;;;;;25.00;8.57;;;;;14.90;96602.00;;;;5082210;28;20211;-70
2023/12/26 14:03:08;;;;;;;38.87;12.30;;;;;15.00;96612.00;;;;5082029;28;20286;-68
2023/12/26 14:05:57;;;;;;;10.43;3.77;;;;;15.30;96611.00;;;;5083324;28;20203;-67
2023/12/26 14:08:50;;;;;;;9.47;3.43;;;;;15.30;96624.00;;;;5083097;28;20680;-68
2023/12/26 14:11:39;;;;;;;12.20;4.17;;;;;14.70;96624.00;;;;5082571;28;20187;-67
2023/12/26 14:14:28;;;;;;;9.83;3.60;;;;;14.90;96634.00;;;;5081383;28;20243;-67
2023/12/26 14:17:18;;;;;;;26.47;8.57;;;;;14.80;96636.00;;;;5082906;28;20259;-67
2023/12/26 14:20:10;;;;;;;16.83;5.63;;;;;14.70;96636.00;;;;5081428;28;20203;-68
2023/12/26 14:22:59;;;;;;;12.23;4.30;;;;;14.80;96641.00;;;;5081644;28;20737;-67
2023/12/26 14:25:50;;;;;;;11.00;3.83;;;;;14.30;96648.00;;;;5081410;28;20215;-66
2023/12/26 14:28:39;;;;;;;13.87;4.87;;;;;14.40;96657.00;;;;5081808;28;20211;-68
2023/12/26 14:31:28;;;;;;;12.63;4.30;;;;;14.60;96661.00;;;;5080484;28;20225;-67
2023/12/26 14:34:17;;;;;;;22.37;7.40;;;;;14.50;96655.00;;;;5081874;28;20226;-68
2023/12/26 14:37:07;;;;;;;14.07;4.77;;;;;14.30;96671.00;;;;5083697;28;21064;-68
2023/12/26 14:40:33;;;;;;;21.20;6.90;;;;;14.30;96674.00;;;;5077751;28;20222;-67
2023/12/26 14:44:00;;;;;;;30.50;9.73;;;;;14.20;96668.00;;;;5079633;28;20249;-67
2023/12/26 14:47:27;;;;;;;11.03;3.97;;;;;14.10;96674.00;;;;5081734;28;20196;-67
2023/12/26 14:50:53;;;;;;;18.47;6.10;;;;;14.00;96669.00;;;;5075581;28;20203;-67
2023/12/26 14:54:19;;;;;;;7.63;2.87;;;;;13.90;96687.00;;;;5080382;28;20230;-68
2023/12/26 14:57:46;;;;;;;18.70;5.97;;;;;13.80;96692.00;;;;5080051;28;20203;-69
2023/12/26 15:01:12;;;;;;;17.87;5.80;;;;;13.40;96687.00;;;;5081309;28;20218;-68
2023/12/26 15:04:03;;;;;;;9.07;3.13;;;;;13.40;96685.00;;;;5080452;28;20223;-68
2023/12/26 15:06:52;;;;;;;8.17;2.77;;;;;13.20;96694.00;;;;5081409;28;20268;-67
2023/12/26 15:09:41;;;;;;;14.03;4.40;;;;;13.10;96704.00;;;;5082273;28;20205;-68
2023/12/26 15:12:31;;;;;;;12.33;4.23;;;;;13.10;96711.00;;;;5083817;28;20196;-67
2023/12/26 15:15:20;;;;;;;26.03;8.17;;;;;12.80;96711.00;;;;5083055;28;20221;-67
2023/12/26 15:18:10;;;;;;;25.67;9.50;;;;;12.60;96721.00;;;;5081038;28;20548;-67
2023/12/26 15:21:02;;;;;;;14.97;7.97;;;;;12.50;96721.00;;;;5078340;28;20602;-67
2023/12/26 15:23:52;;;;;;;13.67;7.60;;;;;12.70;96726.00;;;;5084143;28;20224;-68
2023/12/26 15:26:42;;;;;;;20.10;9.60;;;;;12.60;96723.00;;;;5075841;28;20684;-67
2023/12/26 15:29:31;;;;;;;14.10;8.73;;;;;12.00;96726.00;;;;5084580;28;20199;-67
2023/12/26 15:32:21;;;;;;;29.70;11.10;;;;;12.30;96733.00;;;;5082666;28;20198;-68
2023/12/26 15:35:10;;;;;;;25.57;9.97;;;;;12.20;96728.00;;;;5078746;28;20828;-68
2023/12/26 15:38:01;;;;;;;15.63;7.20;;;;;12.20;96736.00;;;;5081896;28;20253;-67
2023/12/26 15:40:50;;;;;;;14.83;6.43;;;;;11.60;96734.00;;;;5078221;28;20195;-67
2023/12/26 15:43:39;;;;;;;14.30;8.37;;;;;11.70;96749.00;;;;5077778;28;20808;-67
2023/12/26 15:46:29;;;;;;;16.90;10.83;;;;;11.90;96747.00;;;;5084903;28;20196;-68
2023/12/26 15:49:18;;;;;;;27.90;13.53;;;;;11.90;96750.00;;;;5085419;28;20210;-66
2023/12/26 15:52:09;;;;;;;25.37;12.77;;;;;11.90;96744.00;;;;5083145;28;20206;-68
2023/12/26 15:55:00;;;;;;;15.53;12.80;;;;;11.70;96757.00;;;;5118949;22;20242;-70
2023/12/26 15:57:49;;;;;;;27.93;14.70;;;;;11.30;96751.00;;;;5103366;28;20203;-70
2023/12/26 16:00:38;;;;;;;14.87;12.50;;;;;11.20;96750.00;;;;5105874;27;20214;-71
2023/12/26 16:03:27;;;;;;;40.57;16.87;;;;;11.00;96761.00;;;;5101789;27;20211;-70
2023/12/26 16:06:20;;;;;;;48.07;19.97;;;;;10.90;96760.00;;;;5099065;28;20202;-71
2023/12/26 16:09:09;;;;;;;31.63;17.63;;;;;11.30;96773.00;;;;5100813;28;20332;-71
2023/12/26 16:12:00;;;;;;;29.37;19.93;;;;;11.40;96783.00;;;;5099670;28;20754;-71
2023/12/26 16:14:49;;;;;;;26.20;23.47;;;;;11.40;96784.00;;;;5102201;28;20236;-70
2023/12/26 16:17:38;;;;;;;41.23;36.60;;;;;11.50;96789.00;;;;5105520;28;20198;-71
2023/12/26 16:20:27;;;;;;;65.17;44.13;;;;;10.90;96782.00;;;;5100957;28;20198;-71
2023/12/26 16:23:17;;;;;;;30.00;8.03;;;;;11.20;96793.00;;;;5099915;28;20211;-71
2023/12/26 16:26:06;;;;;;;12.90;3.70;;;;;11.10;96794.00;;;;5099569;28;20211;-71
2023/12/26 16:28:57;;;;;;;13.00;3.80;;;;;10.30;96810.00;;;;5095613;28;20660;-70
2023/12/26 16:31:47;;;;;;;11.00;3.37;;;;;11.10;96805.00;;;;5105603;28;20222;-70
2023/12/26 16:34:36;;;;;;;13.17;3.87;;;;;11.20;96819.00;;;;5102537;28;20595;-70
2023/12/26 16:37:25;;;;;;;32.70;9.17;;;;;11.10;96815.00;;;;5103085;28;20206;-70
2023/12/26 16:40:15;;;;;;;26.87;7.40;;;;;11.00;96813.00;;;;5100306;28;20218;-70
2023/12/26 16:43:04;;;;;;;14.80;4.27;;;;;10.50;96811.00;;;;5096517;28;20296;-70
2023/12/26 16:45:55;;;;;;;14.17;4.23;;;;;10.60;96822.00;;;;5097958;28;20684;-70
2023/12/26 16:48:44;;;;;;;11.03;3.20;;;;;10.50;96827.00;;;;5099577;28;20575;-70
2023/12/26 16:51:35;;;;;;;14.93;4.30;;;;;10.40;96832.00;;;;5104565;28;20263;-70
2023/12/26 16:54:24;;;;;;;21.67;6.23;;;;;10.70;96818.00;;;;5101668;28;20245;-70
2023/12/26 16:57:13;;;;;;;25.43;7.17;;;;;10.70;96825.00;;;;5099146;28;20620;-70
2023/12/26 17:00:04;;;;;;;13.07;3.77;;;;;10.50;96811.00;;;;5099340;28;20214;-71
2023/12/26 17:02:55;;;;;;;8.40;2.53;;;;;9.70;96821.00;;;;5097649;28;20195;-70